createdAt,value
2022-09-12T00:00:23.570Z,14.63
2022-09-12T00:02:54.615Z,14.90
2022-09-12T00:05:23.369Z,15.00
2022-09-12T00:07:51.004Z,15.07
2022-09-12T00:10:18.903Z,14.17
2022-09-12T00:12:46.727Z,14.70
2022-09-12T00:15:14.479Z,16.70
2022-09-12T00:17:42.153Z,15.03
2022-09-12T00:20:12.545Z,16.80
2022-09-12T00:22:40.077Z,17.13
2022-09-12T00:25:08.487Z,17.80
2022-09-12T00:27:36.138Z,16.13
2022-09-12T00:30:03.745Z,19.33
2022-09-12T00:32:31.293Z,16.00
2022-09-12T00:34:58.826Z,15.63
2022-09-12T00:37:27.725Z,15.37
2022-09-12T00:39:55.342Z,18.07
2022-09-12T00:42:22.929Z,16.77
2022-09-12T00:44:52.821Z,15.60
2022-09-12T00:47:31.967Z,15.63
2022-09-12T00:50:06.987Z,17.00
2022-09-12T00:52:42.888Z,16.57
2022-09-12T00:55:14.025Z,17.90
2022-09-12T00:57:46.502Z,16.67
2022-09-12T01:00:16.900Z,17.80
2022-09-12T01:02:46.586Z,15.80
2022-09-12T01:05:14.831Z,16.20
2022-09-12T01:07:48.422Z,17.40
2022-09-12T01:10:16.190Z,19.97
2022-09-12T01:12:44.723Z,20.23
2022-09-12T01:15:12.342Z,20.47
2022-09-12T01:17:49.977Z,20.00
2022-09-12T01:20:47.105Z,19.03
2022-09-12T01:23:53.186Z,19.40
2022-09-12T01:26:45.194Z,19.93
2022-09-12T01:29:28.331Z,20.83
2022-09-12T01:32:07.629Z,23.80
2022-09-12T01:34:45.818Z,22.90
2022-09-12T01:37:19.538Z,22.93
2022-09-12T01:39:58.069Z,21.80
2022-09-12T01:42:34.449Z,21.60
2022-09-12T01:45:08.878Z,23.77
2022-09-12T01:47:41.626Z,21.63
2022-09-12T01:50:14.011Z,22.17
2022-09-12T01:52:46.465Z,21.07
2022-09-12T01:55:18.914Z,21.87
2022-09-12T01:57:52.645Z,21.03
2022-09-12T02:00:21.266Z,21.13
2022-09-12T02:02:55.654Z,24.17
2022-09-12T02:05:29.285Z,24.80
2022-09-12T02:08:06.861Z,28.23
2022-09-12T02:10:43.035Z,24.87
2022-09-12T02:13:15.939Z,28.23
2022-09-12T02:15:48.186Z,49.53
2022-09-12T02:18:19.410Z,46.77
2022-09-12T02:20:49.504Z,22.87
2022-09-12T02:23:22.007Z,25.57
2022-09-12T02:25:55.627Z,29.60
2022-09-12T02:28:27.517Z,25.77
2022-09-12T02:31:04.266Z,33.87
2022-09-12T02:33:44.323Z,24.60
2022-09-12T02:36:21.886Z,27.67
2022-09-12T02:38:49.813Z,25.13
2022-09-12T02:41:20.490Z,26.27
2022-09-12T02:43:49.266Z,25.20
2022-09-12T02:46:22.382Z,26.23
2022-09-12T02:48:51.749Z,26.60
2022-09-12T02:51:23.529Z,27.00
2022-09-12T02:53:51.617Z,25.40
2022-09-12T02:56:24.858Z,27.70
2022-09-12T02:58:53.275Z,27.83
2022-09-12T03:01:31.041Z,28.17
2022-09-12T03:04:29.550Z,27.70
2022-09-12T03:07:10.861Z,28.93
2022-09-12T03:09:44.035Z,28.67
2022-09-12T03:12:24.971Z,29.30
2022-09-12T03:15:13.259Z,29.60
2022-09-12T03:17:57.420Z,27.20
2022-09-12T03:20:42.250Z,27.10
2022-09-12T03:23:19.478Z,26.73
2022-09-12T03:25:52.688Z,27.30
2022-09-12T03:28:22.995Z,26.87
2022-09-12T03:30:53.381Z,25.80
2022-09-12T03:33:23.073Z,24.77
2022-09-12T03:35:52.721Z,25.43
2022-09-12T03:38:20.940Z,25.77
2022-09-12T03:40:52.709Z,27.73
2022-09-12T03:43:22.205Z,23.87
2022-09-12T03:45:52.056Z,25.60
2022-09-12T03:48:19.978Z,23.57
2022-09-12T03:50:47.494Z,23.30
2022-09-12T03:53:17.512Z,24.80
2022-09-12T03:55:45.231Z,22.80
2022-09-12T03:58:12.785Z,25.73
2022-09-12T04:00:40.927Z,25.97
2022-09-12T04:03:08.437Z,24.10
2022-09-12T04:05:36.694Z,23.40
2022-09-12T04:08:04.245Z,26.67
2022-09-12T04:10:33.706Z,25.60
2022-09-12T04:13:01.233Z,26.10
2022-09-12T04:15:28.765Z,25.77
2022-09-12T04:17:56.292Z,26.47
2022-09-12T04:20:23.874Z,27.50
2022-09-12T04:22:51.437Z,26.37
2022-09-12T04:25:19.010Z,24.63
2022-09-12T04:27:48.242Z,24.70
2022-09-12T04:30:16.138Z,25.30
2022-09-12T04:32:43.668Z,28.50
2022-09-12T04:35:12.239Z,27.50
2022-09-12T04:37:39.790Z,25.43
2022-09-12T04:40:08.379Z,29.47
2022-09-12T04:42:35.970Z,27.57
2022-09-12T04:45:06.185Z,78.10
2022-09-12T04:47:33.723Z,39.23
2022-09-12T04:50:01.286Z,138.40
2022-09-12T04:52:29.353Z,128.00
2022-09-12T04:54:57.266Z,47.40
2022-09-12T04:57:25.849Z,39.40
2022-09-12T04:59:53.387Z,31.17
2022-09-12T05:02:22.517Z,28.27
2022-09-12T05:04:50.097Z,27.57
2022-09-12T05:07:17.634Z,28.70
2022-09-12T05:09:45.195Z,26.60
2022-09-12T05:12:13.304Z,25.70
2022-09-12T05:14:40.938Z,26.10
2022-09-12T05:17:08.465Z,24.13
2022-09-12T05:19:37.688Z,23.90
2022-09-12T05:22:06.651Z,23.20
2022-09-12T05:24:35.113Z,22.90
2022-09-12T05:27:03.387Z,22.33
2022-09-12T05:29:31.002Z,22.33
2022-09-12T05:31:58.546Z,22.60
2022-09-12T05:34:27.809Z,19.10
2022-09-12T05:36:56.782Z,20.50
2022-09-12T05:39:24.543Z,22.47
2022-09-12T05:41:52.072Z,20.13
2022-09-12T05:44:19.946Z,19.00
2022-09-12T05:46:50.755Z,20.43
2022-09-12T05:49:18.307Z,18.60
2022-09-12T05:51:46.566Z,20.73
2022-09-12T05:54:19.403Z,19.57
2022-09-12T05:56:47.957Z,21.10
2022-09-12T05:59:17.286Z,21.63
2022-09-12T06:01:45.819Z,20.00
2022-09-12T06:04:13.589Z,19.73
2022-09-12T06:06:45.029Z,17.73
2022-09-12T06:09:15.685Z,21.00
2022-09-12T06:11:43.331Z,18.57
2022-09-12T06:14:12.728Z,17.47
2022-09-12T06:16:40.470Z,14.23
2022-09-12T06:19:13.752Z,14.10
2022-09-12T06:21:41.448Z,12.53
2022-09-12T06:24:09.286Z,12.50
2022-09-12T06:26:38.295Z,12.80
2022-09-12T06:29:05.989Z,11.63
2022-09-12T06:31:35.426Z,11.10
2022-09-12T06:34:05.654Z,9.00
2022-09-12T06:36:36.228Z,9.83
2022-09-12T06:39:06.286Z,9.33
2022-09-12T06:41:34.184Z,9.17
2022-09-12T06:44:03.907Z,10.20
2022-09-12T06:46:32.038Z,8.47
2022-09-12T06:49:00.630Z,8.40
2022-09-12T06:51:29.262Z,10.27
2022-09-12T06:53:58.200Z,8.90
2022-09-12T06:56:26.989Z,8.50
2022-09-12T06:58:56.970Z,8.50
2022-09-12T07:01:27.739Z,8.20
2022-09-12T07:03:57.299Z,7.63
2022-09-12T07:06:31.508Z,8.40
2022-09-12T07:08:59.505Z,7.23
2022-09-12T07:11:29.257Z,8.13
2022-09-12T07:13:57.811Z,6.63
2022-09-12T07:16:26.955Z,6.97
2022-09-12T07:18:56.397Z,6.30
2022-09-12T07:21:24.037Z,7.37
2022-09-12T07:23:52.697Z,7.47
2022-09-12T07:26:20.250Z,7.13
2022-09-12T07:28:52.001Z,7.43
2022-09-12T07:31:20.618Z,8.27
2022-09-12T07:33:54.449Z,8.30
2022-09-12T07:36:24.590Z,8.27
2022-09-12T07:38:57.533Z,8.43
2022-09-12T07:41:27.481Z,7.80
2022-09-12T07:43:57.025Z,8.37
2022-09-12T07:46:25.386Z,8.60
2022-09-12T07:48:56.355Z,8.33
2022-09-12T07:51:24.922Z,8.77
2022-09-12T07:53:52.737Z,8.70
2022-09-12T07:56:22.007Z,8.50
2022-09-12T07:58:51.011Z,8.87
2022-09-12T08:01:20.011Z,8.07
2022-09-12T08:03:49.109Z,8.03
2022-09-12T08:06:21.000Z,8.60
2022-09-12T08:08:49.158Z,8.10
2022-09-12T08:11:18.398Z,9.73
2022-09-12T08:13:49.640Z,7.97
2022-09-12T08:16:22.825Z,9.53
2022-09-12T08:18:51.073Z,8.97
2022-09-12T08:21:21.931Z,9.07
2022-09-12T08:23:54.010Z,9.33
2022-09-12T08:26:21.586Z,9.07
2022-09-12T08:28:49.701Z,8.70
2022-09-12T08:31:19.809Z,7.80
2022-09-12T08:33:47.848Z,7.60
2022-09-12T08:36:17.767Z,8.60
2022-09-12T08:38:48.606Z,8.90
2022-09-12T08:41:27.199Z,7.70
2022-09-12T08:44:08.786Z,7.73
2022-09-12T08:46:44.687Z,8.20
2022-09-12T08:49:16.290Z,7.37
2022-09-12T08:51:44.048Z,7.70
2022-09-12T08:54:24.738Z,7.63
2022-09-12T08:56:55.011Z,7.17
2022-09-12T08:59:22.929Z,6.77
2022-09-12T09:01:55.444Z,7.73
2022-09-12T09:04:38.626Z,7.83
2022-09-12T09:07:23.545Z,7.70
2022-09-12T09:10:07.974Z,6.73
2022-09-12T09:12:43.234Z,7.60
2022-09-12T09:15:40.983Z,7.60
2022-09-12T09:18:16.627Z,7.33
2022-09-12T09:20:50.043Z,8.00
2022-09-12T09:23:23.159Z,6.90
2022-09-12T09:25:57.559Z,7.43
2022-09-12T09:28:31.964Z,7.80
2022-09-12T09:30:59.795Z,6.60
2022-09-12T09:33:34.705Z,7.90
2022-09-12T09:36:14.818Z,8.27
2022-09-12T09:38:49.397Z,7.30
2022-09-12T09:41:36.256Z,6.87
2022-09-12T09:44:04.267Z,6.60
2022-09-12T09:46:32.760Z,7.53
2022-09-12T09:49:03.815Z,7.73
2022-09-12T09:51:36.043Z,6.67
2022-09-12T09:54:12.409Z,7.30
2022-09-12T09:56:43.132Z,6.43
2022-09-12T09:59:12.726Z,6.60
2022-09-12T10:01:46.303Z,8.03
2022-09-12T10:04:20.314Z,7.53
2022-09-12T10:06:48.459Z,6.50
2022-09-12T10:09:23.094Z,7.33
2022-09-12T10:11:53.094Z,5.33
2022-09-12T10:14:36.688Z,7.40
2022-09-12T10:17:23.556Z,6.03
2022-09-12T10:20:10.506Z,5.63
2022-09-12T10:22:39.630Z,5.67
2022-09-12T10:25:13.052Z,6.10
2022-09-12T10:27:43.170Z,7.07
2022-09-12T10:30:19.200Z,6.37
2022-09-12T10:32:50.571Z,5.53
2022-09-12T10:35:21.742Z,5.83
2022-09-12T10:37:56.701Z,6.50
2022-09-12T10:40:26.404Z,5.47
2022-09-12T10:42:57.318Z,5.20
2022-09-12T10:45:29.011Z,5.93
2022-09-12T10:48:02.087Z,5.43
2022-09-12T10:50:33.234Z,4.80
2022-09-12T10:53:15.838Z,5.17
2022-09-12T10:56:02.152Z,5.73
2022-09-12T10:58:50.049Z,4.57
2022-09-12T11:01:33.828Z,4.10
2022-09-12T11:04:15.616Z,4.20
2022-09-12T11:06:55.670Z,4.20
2022-09-12T11:09:29.634Z,4.63
2022-09-12T11:12:09.525Z,3.70
2022-09-12T11:14:52.406Z,3.10
2022-09-12T11:17:31.920Z,3.87
2022-09-12T11:20:33.371Z,3.97
2022-09-12T11:23:26.615Z,4.07
2022-09-12T11:26:00.964Z,4.13
2022-09-12T11:28:36.456Z,3.97
2022-09-12T11:31:34.501Z,3.97
2022-09-12T11:34:09.198Z,4.40
2022-09-12T11:36:44.265Z,4.00
2022-09-12T11:39:15.461Z,4.73
2022-09-12T11:41:44.981Z,4.70
2022-09-12T11:44:18.514Z,4.80
2022-09-12T11:46:51.555Z,4.53
2022-09-12T11:49:34.788Z,5.50
2022-09-12T11:52:07.618Z,4.50
2022-09-12T11:54:41.532Z,5.13
2022-09-12T11:57:16.054Z,4.80
2022-09-12T11:59:49.419Z,5.87
2022-09-12T12:02:26.377Z,5.03
2022-09-12T12:05:04.819Z,4.33
2022-09-12T12:07:45.377Z,5.23
2022-09-12T12:10:26.618Z,5.57
2022-09-12T12:12:56.441Z,5.17
2022-09-12T12:15:26.551Z,5.77
2022-09-12T12:18:08.732Z,5.73
2022-09-12T12:20:37.236Z,6.40
2022-09-12T12:23:05.045Z,5.07
2022-09-12T12:25:52.751Z,5.30
2022-09-12T12:28:53.796Z,5.50
2022-09-12T12:31:21.366Z,10.70
2022-09-12T12:33:56.562Z,5.30
2022-09-12T12:36:40.182Z,5.07
2022-09-12T12:39:48.051Z,5.50
2022-09-12T12:43:04.429Z,5.00
2022-09-12T12:46:03.692Z,4.43
2022-09-12T12:48:36.283Z,5.87
2022-09-12T12:51:25.437Z,5.30
2022-09-12T12:53:54.554Z,5.60
2022-09-12T12:56:39.776Z,8.40
2022-09-12T12:59:18.622Z,5.87
2022-09-12T13:01:54.754Z,5.57
2022-09-12T13:04:25.898Z,5.43
2022-09-12T13:07:05.837Z,5.90
2022-09-12T13:09:39.453Z,6.10
2022-09-12T13:12:10.014Z,6.23
2022-09-12T13:14:52.637Z,5.43
2022-09-12T13:17:26.235Z,4.93
2022-09-12T13:20:26.130Z,5.90
2022-09-12T13:22:53.281Z,6.10
2022-09-12T13:25:24.774Z,7.27
2022-09-12T13:28:01.173Z,6.53
2022-09-12T13:30:30.111Z,5.30
2022-09-12T13:33:00.082Z,5.90
2022-09-12T13:35:37.403Z,5.70
2022-09-12T13:38:15.908Z,6.10
2022-09-12T13:40:56.990Z,5.50
2022-09-12T13:43:37.101Z,5.97
2022-09-12T13:46:04.829Z,6.80
2022-09-12T13:48:32.460Z,7.00
2022-09-12T13:51:02.467Z,7.40
2022-09-12T13:53:37.826Z,7.70
2022-09-12T13:56:05.423Z,6.10
2022-09-12T13:58:35.106Z,6.27
2022-09-12T14:01:06.840Z,6.03
2022-09-12T14:03:58.998Z,6.00
2022-09-12T14:06:27.510Z,6.20
2022-09-12T14:08:58.279Z,7.13
2022-09-12T14:11:28.802Z,6.10
2022-09-12T14:13:57.110Z,4.80
2022-09-12T14:16:27.271Z,6.17
2022-09-12T14:18:54.889Z,6.33
2022-09-12T14:21:34.905Z,6.00
2022-09-12T14:24:08.498Z,5.33
2022-09-12T14:26:37.451Z,5.77
2022-09-12T14:29:07.484Z,6.00
2022-09-12T14:31:37.617Z,6.50
2022-09-12T14:34:13.519Z,26.40
2022-09-12T14:36:45.809Z,7.10
2022-09-12T14:39:22.835Z,5.50
2022-09-12T14:41:50.905Z,6.10
2022-09-12T14:44:21.954Z,6.00
2022-09-12T14:46:51.141Z,6.00
2022-09-12T14:49:22.401Z,5.73
2022-09-12T14:51:56.389Z,8.10
2022-09-12T14:54:39.378Z,6.00
2022-09-12T14:57:17.808Z,6.03
2022-09-12T14:59:45.323Z,5.37
2022-09-12T15:02:24.054Z,5.20
2022-09-12T15:04:53.227Z,4.83
2022-09-12T15:07:32.474Z,5.27
2022-09-12T15:10:03.432Z,5.80
2022-09-12T15:12:31.029Z,4.87
2022-09-12T15:15:03.229Z,6.00
2022-09-12T15:17:30.771Z,6.10
2022-09-12T15:19:58.328Z,5.83
2022-09-12T15:22:26.916Z,5.17
2022-09-12T15:24:56.310Z,7.03
2022-09-12T15:27:26.665Z,5.23
2022-09-12T15:29:54.402Z,5.87
2022-09-12T15:32:24.706Z,5.13
2022-09-12T15:34:52.671Z,5.90
2022-09-12T15:37:21.758Z,5.40
2022-09-12T15:39:49.857Z,7.23
2022-09-12T15:42:18.797Z,6.10
2022-09-12T15:44:47.666Z,6.30
2022-09-12T15:47:15.374Z,5.20
2022-09-12T15:49:42.905Z,6.77
2022-09-12T15:52:15.687Z,5.10
2022-09-12T15:54:44.022Z,7.53
2022-09-12T15:57:11.670Z,6.97
2022-09-12T15:59:39.556Z,14.10
2022-09-12T16:02:10.247Z,10.07
2022-09-12T16:04:38.424Z,8.20
2022-09-12T16:07:06.106Z,7.70
2022-09-12T16:09:34.362Z,6.77
2022-09-12T16:12:02.258Z,7.40
2022-09-12T16:14:29.827Z,6.43
2022-09-12T16:16:57.369Z,6.00
2022-09-12T16:19:26.265Z,6.40
2022-09-12T16:21:53.778Z,7.13
2022-09-12T16:24:21.439Z,5.90
2022-09-12T16:26:49.297Z,6.70
2022-09-12T16:29:17.069Z,6.87
2022-09-12T16:31:44.829Z,5.60
2022-09-12T16:34:13.666Z,6.93
2022-09-12T16:36:45.122Z,7.17
2022-09-12T16:39:12.650Z,6.40
2022-09-12T16:41:42.070Z,6.90
2022-09-12T16:44:10.149Z,7.27
2022-09-12T16:46:37.883Z,7.03
2022-09-12T16:49:06.350Z,7.20
2022-09-12T16:51:35.776Z,7.97
2022-09-12T16:54:05.085Z,7.23
2022-09-12T16:56:32.652Z,7.53
2022-09-12T16:59:00.184Z,7.67
2022-09-12T17:01:28.502Z,8.20
2022-09-12T17:03:57.370Z,7.37
2022-09-12T17:06:26.122Z,8.00
2022-09-12T17:08:55.377Z,7.50
2022-09-12T17:11:26.640Z,8.37
2022-09-12T17:14:05.500Z,7.47
2022-09-12T17:16:34.944Z,8.00
2022-09-12T17:19:02.577Z,7.00
2022-09-12T17:21:30.266Z,8.27
2022-09-12T17:23:59.086Z,8.30
2022-09-12T17:26:28.203Z,6.77
2022-09-12T17:28:55.836Z,7.23
2022-09-12T17:31:23.457Z,8.47
2022-09-12T17:33:51.065Z,7.63
2022-09-12T17:36:18.956Z,7.70
2022-09-12T17:38:47.283Z,6.67
2022-09-12T17:41:17.540Z,7.83
2022-09-12T17:43:49.953Z,6.90
2022-09-12T17:46:18.052Z,7.53
2022-09-12T17:48:45.682Z,7.20
2022-09-12T17:51:14.917Z,6.37
2022-09-12T17:53:43.177Z,6.90
2022-09-12T17:56:12.225Z,7.80
2022-09-12T17:58:40.115Z,7.73
2022-09-12T18:01:30.359Z,7.93
2022-09-12T18:04:00.452Z,9.03
2022-09-12T18:06:28.681Z,9.13
2022-09-12T18:08:56.561Z,8.07
2022-09-12T18:11:24.073Z,8.37
2022-09-12T18:13:51.607Z,7.00
2022-09-12T18:16:20.913Z,8.10
2022-09-12T18:18:50.902Z,9.73
2022-09-12T18:21:19.738Z,6.97
2022-09-12T18:23:47.655Z,8.60
2022-09-12T18:26:15.424Z,8.27
2022-09-12T18:28:44.873Z,7.70
2022-09-12T18:31:15.072Z,9.17
2022-09-12T18:33:44.162Z,9.83
2022-09-12T18:36:13.773Z,8.70
2022-09-12T18:38:42.223Z,8.60
2022-09-12T18:41:11.511Z,9.50
2022-09-12T18:43:39.467Z,8.90
2022-09-12T18:46:08.544Z,8.67
2022-09-12T18:48:36.979Z,9.80
2022-09-12T18:51:08.782Z,9.40
2022-09-12T18:53:37.694Z,10.10
2022-09-12T18:56:08.519Z,9.13
2022-09-12T18:58:36.349Z,9.37
2022-09-12T19:01:10.627Z,10.50
2022-09-12T19:03:38.170Z,10.27
2022-09-12T19:06:12.246Z,9.97
2022-09-12T19:08:40.463Z,12.20
2022-09-12T19:11:08.723Z,9.97
2022-09-12T19:13:38.127Z,9.40
2022-09-12T19:16:08.886Z,9.33
2022-09-12T19:18:36.897Z,9.93
2022-09-12T19:21:05.250Z,8.20
2022-09-12T19:23:35.306Z,8.60
2022-09-12T19:26:05.530Z,9.30
2022-09-12T19:28:33.547Z,9.90
2022-09-12T19:31:01.287Z,11.13
2022-09-12T19:33:29.228Z,9.30
2022-09-12T19:35:56.766Z,9.30
2022-09-12T19:38:24.285Z,9.50
2022-09-12T19:40:59.522Z,11.37
2022-09-12T19:43:27.905Z,11.63
2022-09-12T19:45:56.240Z,9.80
2022-09-12T19:48:24.230Z,10.80
2022-09-12T19:50:51.897Z,10.40
2022-09-12T19:53:19.545Z,9.50
2022-09-12T19:55:47.293Z,9.43
2022-09-12T19:58:16.165Z,9.73
2022-09-12T20:00:43.733Z,9.10
2022-09-12T20:03:11.282Z,9.73
2022-09-12T20:05:42.612Z,9.70
2022-09-12T20:08:10.727Z,9.53
2022-09-12T20:10:38.290Z,9.63
2022-09-12T20:13:06.636Z,9.53
2022-09-12T20:15:35.697Z,9.10
2022-09-12T20:18:03.323Z,9.00
2022-09-12T20:20:31.866Z,10.03
2022-09-12T20:22:59.402Z,9.63
2022-09-12T20:25:26.934Z,9.27
2022-09-12T20:27:59.464Z,9.03
2022-09-12T20:30:27.722Z,8.50
2022-09-12T20:32:56.585Z,9.17
2022-09-12T20:35:24.150Z,8.80
2022-09-12T20:37:51.653Z,10.83
2022-09-12T20:40:19.826Z,8.50
2022-09-12T20:42:47.380Z,9.50
2022-09-12T20:45:15.057Z,9.23
2022-09-12T20:47:42.922Z,9.37
2022-09-12T20:50:11.984Z,9.50
2022-09-12T20:52:39.498Z,9.00
2022-09-12T20:55:07.662Z,9.33
2022-09-12T20:57:35.181Z,9.47
2022-09-12T21:00:03.565Z,9.50
2022-09-12T21:02:31.207Z,10.60
2022-09-12T21:04:58.800Z,9.00
2022-09-12T21:07:27.694Z,10.40
2022-09-12T21:09:55.214Z,10.43
2022-09-12T21:12:22.826Z,10.23
2022-09-12T21:14:50.357Z,12.43
2022-09-12T21:17:18.222Z,9.80
2022-09-12T21:19:45.754Z,11.27
2022-09-12T21:22:13.262Z,9.27
2022-09-12T21:24:42.190Z,8.33
2022-09-12T21:27:10.066Z,10.60
2022-09-12T21:29:37.954Z,8.73
2022-09-12T21:32:06.049Z,9.53
2022-09-12T21:34:33.602Z,9.87
2022-09-12T21:37:01.129Z,10.53
2022-09-12T21:39:28.661Z,10.50
2022-09-12T21:41:57.535Z,10.10
2022-09-12T21:44:25.045Z,9.93
2022-09-12T21:46:52.610Z,10.60
2022-09-12T21:49:20.143Z,9.10
2022-09-12T21:51:47.877Z,9.40
2022-09-12T21:54:15.720Z,9.13
2022-09-12T21:56:43.321Z,8.93
2022-09-12T21:59:12.198Z,10.00
2022-09-12T22:01:39.783Z,9.20
2022-09-12T22:04:07.375Z,9.20
2022-09-12T22:06:34.917Z,9.03
2022-09-12T22:09:02.660Z,8.87
2022-09-12T22:11:30.545Z,8.50
2022-09-12T22:13:58.221Z,9.50
2022-09-12T22:16:27.241Z,8.53
2022-09-12T22:18:54.797Z,9.30
2022-09-12T22:21:24.249Z,9.50
2022-09-12T22:24:09.506Z,8.67
2022-09-12T22:26:44.430Z,8.57
2022-09-12T22:29:13.231Z,9.97
2022-09-12T22:31:42.475Z,8.83
2022-09-12T22:34:10.058Z,8.70
2022-09-12T22:36:39.145Z,8.50
2022-09-12T22:39:07.266Z,8.13
2022-09-12T22:41:34.862Z,8.60
2022-09-12T22:44:02.581Z,9.20
2022-09-12T22:46:30.843Z,8.47
2022-09-12T22:48:59.857Z,8.70
2022-09-12T22:51:27.403Z,7.80
2022-09-12T22:53:56.382Z,8.73
2022-09-12T22:56:24.795Z,8.40
2022-09-12T22:58:52.396Z,8.87
2022-09-12T23:01:20.165Z,7.63
2022-09-12T23:03:47.757Z,7.30
2022-09-12T23:06:16.834Z,8.27
2022-09-12T23:08:44.715Z,7.67
2022-09-12T23:11:13.798Z,8.23
2022-09-12T23:13:43.694Z,8.20
2022-09-12T23:16:16.662Z,9.40
2022-09-12T23:18:44.314Z,8.40
2022-09-12T23:21:13.399Z,9.43
2022-09-12T23:23:42.519Z,9.57
2022-09-12T23:26:12.519Z,8.67
2022-09-12T23:28:40.847Z,10.47
2022-09-12T23:31:09.721Z,14.90
2022-09-12T23:33:37.754Z,10.90
2022-09-12T23:36:07.091Z,10.73
2022-09-12T23:38:36.203Z,11.90
2022-09-12T23:41:05.862Z,13.80
2022-09-12T23:43:33.989Z,17.37
2022-09-12T23:46:01.841Z,16.37
2022-09-12T23:48:29.526Z,16.87
2022-09-12T23:50:57.079Z,15.50
2022-09-12T23:53:25.017Z,14.20
2022-09-12T23:55:53.161Z,17.50
2022-09-12T23:58:22.708Z,17.73
